Claire City, South Dakota
Current Conditions -  °F | °C
As of 5:16 AM on Sunday 21 Dec 2014 (Local Time) from KETH Reporting Station
Haze Haze  
Wind Chill: 20°   Ceiling: 900
Heat Index: 28°   Visibility: 4mi
Dew Point: 27°   Wind: 8mph
Humidity: 93%   Direction: 170°S
Pressure: 29.84"   Gusts: NA
Location:  45.86°N, 97.1°W
Report Text: KETH 211116Z AUTO 17007KT 4SM BR OVC009 M02/M03 A2984 RMK AO2
Loading
Personal Weather Stations






























Interactive Weather Map New forecast layout! Learn more

10-Day Weather Forecast

Advertisements
Track Severe Weather on mobile